CMP128 MPTO-MDSD
Flight info
| Callsign | CMP128 |
|---|---|
| Flight time | 2h 2m |
| Altitude | 35000 |
| Route | EGET3A EGETA AGUJA UM597 GABRA GABR2H |
| Aircraft | B738/M-SDE3FGHIRWY/S |
Departure
| Time | 2026-04-28 16:10 |
|---|---|
| Airport | Tocumen International Airport (MPTO) |
Arrival
| Time | 2026-04-28 18:13 |
|---|---|
| Airport | Las Américas International Airport (MDSD) |
| Time | Latitude | Longitude | Altitude | Speed | Heading |
|---|---|---|---|---|---|
| 2026-04-28 15:41 | 9.06085 | -79.39229 | 29 ft | 0 kts | 120° |
| 2026-04-28 15:55 | 9.06085 | -79.39231 | 29 ft | 2 kts | 120° |
| 2026-04-28 15:55 | 9.06100 | -79.39245 | 29 ft | 4 kts | 180° |
| 2026-04-28 15:55 | 9.06122 | -79.39238 | 29 ft | 2 kts | 207° |
| 2026-04-28 15:56 | 9.06123 | -79.39237 | 29 ft | 0 kts | 207° |
| 2026-04-28 15:59 | 9.06103 | -79.39248 | 29 ft | 7 kts | 207° |
| 2026-04-28 15:59 | 9.06058 | -79.39269 | 29 ft | 7 kts | 201° |
| 2026-04-28 16:00 | 9.06014 | -79.39285 | 29 ft | 7 kts | 194° |
| 2026-04-28 16:00 | 9.05973 | -79.39267 | 29 ft | 7 kts | 131° |
| 2026-04-28 16:00 | 9.05948 | -79.39228 | 29 ft | 7 kts | 121° |
| 2026-04-28 16:00 | 9.05926 | -79.39189 | 29 ft | 6 kts | 118° |
| 2026-04-28 16:01 | 9.05905 | -79.39149 | 29 ft | 6 kts | 118° |
| 2026-04-28 16:01 | 9.05879 | -79.39115 | 29 ft | 6 kts | 149° |
| 2026-04-28 16:01 | 9.05839 | -79.39126 | 29 ft | 6 kts | 209° |
| 2026-04-28 16:01 | 9.05802 | -79.39147 | 29 ft | 6 kts | 210° |
| 2026-04-28 16:02 | 9.05766 | -79.39168 | 29 ft | 6 kts | 210° |
| 2026-04-28 16:02 | 9.05728 | -79.39177 | 29 ft | 6 kts | 162° |
| 2026-04-28 16:02 | 9.05700 | -79.39147 | 29 ft | 6 kts | 124° |
| 2026-04-28 16:02 | 9.05679 | -79.39112 | 29 ft | 6 kts | 120° |
| 2026-04-28 16:03 | 9.05659 | -79.39078 | 29 ft | 6 kts | 120° |
| 2026-04-28 16:03 | 9.05648 | -79.39058 | 29 ft | 0 kts | 120° |
| 2026-04-28 16:04 | 9.05634 | -79.39034 | 29 ft | 11 kts | 120° |
| 2026-04-28 16:04 | 9.05582 | -79.38974 | 29 ft | 10 kts | 164° |
| 2026-04-28 16:04 | 9.05522 | -79.39001 | 29 ft | 10 kts | 216° |
| 2026-04-28 16:05 | 9.05468 | -79.39041 | 29 ft | 9 kts | 210° |
| 2026-04-28 16:05 | 9.05413 | -79.39073 | 29 ft | 9 kts | 210° |
| 2026-04-28 16:05 | 9.05358 | -79.39104 | 29 ft | 9 kts | 209° |
| 2026-04-28 16:05 | 9.05305 | -79.39134 | 29 ft | 9 kts | 210° |
| 2026-04-28 16:06 | 9.05254 | -79.39164 | 29 ft | 8 kts | 210° |
| 2026-04-28 16:06 | 9.05204 | -79.39193 | 29 ft | 8 kts | 210° |
| 2026-04-28 16:06 | 9.05155 | -79.39221 | 29 ft | 8 kts | 210° |
| 2026-04-28 16:06 | 9.05108 | -79.39248 | 29 ft | 8 kts | 210° |
| 2026-04-28 16:07 | 9.05063 | -79.39274 | 29 ft | 7 kts | 210° |
| 2026-04-28 16:07 | 9.05018 | -79.39299 | 29 ft | 7 kts | 209° |
| 2026-04-28 16:07 | 9.04934 | -79.39347 | 29 ft | 7 kts | 209° |
| 2026-04-28 16:08 | 9.04893 | -79.39371 | 29 ft | 7 kts | 207° |
| 2026-04-28 16:08 | 9.04850 | -79.39379 | 29 ft | 7 kts | 162° |
| 2026-04-28 16:08 | 9.04820 | -79.39345 | 29 ft | 6 kts | 121° |
| 2026-04-28 16:09 | 9.04786 | -79.39265 | 30 ft | 6 kts | 79° |
| 2026-04-28 16:09 | 9.04813 | -79.39233 | 30 ft | 6 kts | 32° |
| 2026-04-28 16:09 | 9.04850 | -79.39211 | 30 ft | 6 kts | 29° |
| 2026-04-28 16:10 | 9.05493 | -79.38846 | 29 ft | 122 kts | 29° |
| 2026-04-28 16:10 | 9.06411 | -79.38325 | 33 ft | 180 kts | 28° |
| 2026-04-28 16:10 | 9.08388 | -79.36941 | 1947 ft | 151 kts | 44° |
| 2026-04-28 16:11 | 9.10194 | -79.35385 | 2379 ft | 186 kts | 39° |
| 2026-04-28 16:11 | 9.12152 | -79.33792 | 3303 ft | 190 kts | 37° |
| 2026-04-28 16:12 | 9.14423 | -79.32234 | 4306 ft | 207 kts | 34° |
| 2026-04-28 16:12 | 9.15662 | -79.31352 | 4478 ft | 228 kts | 36° |
| 2026-04-28 16:13 | 9.18446 | -79.29308 | 4837 ft | 269 kts | 36° |
| 2026-04-28 16:13 | 9.19974 | -79.28170 | 5453 ft | 275 kts | 36° |
| 2026-04-28 16:13 | 9.23070 | -79.25847 | 6942 ft | 280 kts | 37° |
| 2026-04-28 16:14 | 9.26224 | -79.23460 | 8414 ft | 286 kts | 37° |
| 2026-04-28 16:14 | 9.29450 | -79.21013 | 9897 ft | 292 kts | 37° |
| 2026-04-28 16:15 | 9.32856 | -79.18428 | 10720 ft | 324 kts | 37° |
| 2026-04-28 16:15 | 9.34686 | -79.17040 | 11314 ft | 332 kts | 37° |
| 2026-04-28 16:15 | 9.36543 | -79.15628 | 12061 ft | 335 kts | 37° |
| 2026-04-28 16:16 | 9.40273 | -79.12791 | 13538 ft | 341 kts | 37° |
| 2026-04-28 16:16 | 9.42185 | -79.11338 | 14271 ft | 345 kts | 37° |
| 2026-04-28 16:17 | 9.46067 | -79.08388 | 15723 ft | 352 kts | 37° |
| 2026-04-28 16:17 | 9.47993 | -79.06830 | 16424 ft | 356 kts | 43° |
| 2026-04-28 16:17 | 9.49752 | -79.05053 | 17116 ft | 360 kts | 47° |
| 2026-04-28 16:17 | 9.51452 | -79.03167 | 17786 ft | 363 kts | 48° |
| 2026-04-28 16:18 | 9.53139 | -79.01249 | 18434 ft | 367 kts | 48° |
| 2026-04-28 16:18 | 9.54855 | -78.99303 | 19073 ft | 371 kts | 48° |
| 2026-04-28 16:18 | 9.56593 | -78.97351 | 19696 ft | 374 kts | 48° |
| 2026-04-28 16:18 | 9.58357 | -78.95388 | 20305 ft | 378 kts | 47° |
| 2026-04-28 16:19 | 9.60145 | -78.93416 | 20896 ft | 381 kts | 47° |
| 2026-04-28 16:19 | 9.61928 | -78.91458 | 21461 ft | 385 kts | 47° |
| 2026-04-28 16:19 | 9.63758 | -78.89455 | 22019 ft | 388 kts | 47° |
| 2026-04-28 16:19 | 9.65602 | -78.87440 | 22558 ft | 391 kts | 47° |
| 2026-04-28 16:20 | 9.67462 | -78.85410 | 23084 ft | 395 kts | 47° |
| 2026-04-28 16:20 | 9.69339 | -78.83361 | 23597 ft | 398 kts | 47° |
| 2026-04-28 16:20 | 9.71233 | -78.81294 | 24097 ft | 401 kts | 47° |
| 2026-04-28 16:20 | 9.73143 | -78.79210 | 24574 ft | 404 kts | 47° |
| 2026-04-28 16:21 | 9.75065 | -78.77111 | 25054 ft | 407 kts | 47° |
| 2026-04-28 16:21 | 9.76998 | -78.75000 | 25511 ft | 410 kts | 47° |
| 2026-04-28 16:21 | 9.78921 | -78.72900 | 25946 ft | 413 kts | 47° |
| 2026-04-28 16:21 | 9.80886 | -78.70754 | 26376 ft | 416 kts | 47° |
| 2026-04-28 16:22 | 9.82859 | -78.68598 | 26797 ft | 418 kts | 47° |
| 2026-04-28 16:22 | 9.84845 | -78.66428 | 27204 ft | 421 kts | 47° |
| 2026-04-28 16:22 | 9.86845 | -78.64241 | 27600 ft | 424 kts | 47° |
| 2026-04-28 16:22 | 9.88854 | -78.62045 | 27983 ft | 426 kts | 47° |
| 2026-04-28 16:23 | 9.90877 | -78.59832 | 28356 ft | 429 kts | 47° |
| 2026-04-28 16:23 | 9.92912 | -78.57606 | 28719 ft | 431 kts | 47° |
| 2026-04-28 16:23 | 9.94963 | -78.55363 | 29072 ft | 434 kts | 47° |
| 2026-04-28 16:23 | 9.97018 | -78.53114 | 29414 ft | 436 kts | 47° |
| 2026-04-28 16:24 | 9.99090 | -78.50847 | 29751 ft | 439 kts | 47° |
| 2026-04-28 16:24 | 10.01168 | -78.48573 | 30072 ft | 441 kts | 47° |
| 2026-04-28 16:24 | 10.03261 | -78.46281 | 30388 ft | 443 kts | 47° |
| 2026-04-28 16:24 | 10.05357 | -78.43986 | 30687 ft | 445 kts | 47° |
| 2026-04-28 16:25 | 10.07468 | -78.41674 | 30980 ft | 447 kts | 47° |
| 2026-04-28 16:25 | 10.09587 | -78.39352 | 31263 ft | 449 kts | 47° |
| 2026-04-28 16:25 | 10.11718 | -78.37017 | 31540 ft | 451 kts | 47° |
| 2026-04-28 16:25 | 10.13857 | -78.34673 | 31805 ft | 453 kts | 47° |
| 2026-04-28 16:26 | 10.16005 | -78.32319 | 32063 ft | 455 kts | 47° |
| 2026-04-28 16:26 | 10.18159 | -78.29956 | 32312 ft | 457 kts | 47° |
| 2026-04-28 16:26 | 10.20321 | -78.27585 | 32587 ft | 458 kts | 47° |
| 2026-04-28 16:26 | 10.22456 | -78.25244 | 32934 ft | 457 kts | 47° |
| 2026-04-28 16:27 | 10.24610 | -78.22880 | 33308 ft | 455 kts | 47° |
| 2026-04-28 16:27 | 10.26756 | -78.20525 | 33642 ft | 454 kts | 47° |
| 2026-04-28 16:27 | 10.31044 | -78.15819 | 34222 ft | 454 kts | 47° |
| 2026-04-28 16:28 | 10.33187 | -78.13465 | 34530 ft | 453 kts | 47° |
| 2026-04-28 16:28 | 10.34629 | -78.11881 | 34740 ft | 452 kts | 47° |
| 2026-04-28 16:28 | 10.37455 | -78.08777 | 35109 ft | 451 kts | 47° |
| 2026-04-28 16:28 | 10.39587 | -78.06434 | 35377 ft | 451 kts | 47° |
| 2026-04-28 16:29 | 10.43852 | -78.01747 | 35921 ft | 450 kts | 47° |
| 2026-04-28 16:29 | 10.48092 | -77.97084 | 36395 ft | 449 kts | 47° |
| 2026-04-28 16:30 | 10.50214 | -77.94750 | 36615 ft | 450 kts | 47° |
| 2026-04-28 16:30 | 10.52338 | -77.92412 | 36828 ft | 450 kts | 47° |
| 2026-04-28 16:30 | 10.54462 | -77.90076 | 37043 ft | 450 kts | 47° |
| 2026-04-28 16:30 | 10.56586 | -77.87737 | 37221 ft | 450 kts | 47° |
| 2026-04-28 16:31 | 10.58691 | -77.85421 | 37387 ft | 451 kts | 47° |
| 2026-04-28 16:31 | 10.60818 | -77.83078 | 37585 ft | 451 kts | 47° |
| 2026-04-28 16:31 | 10.62944 | -77.80736 | 37796 ft | 450 kts | 47° |
| 2026-04-28 16:31 | 10.65069 | -77.78395 | 37964 ft | 451 kts | 47° |
| 2026-04-28 16:32 | 10.67200 | -77.76047 | 37990 ft | 454 kts | 47° |
| 2026-04-28 16:32 | 10.73606 | -77.68984 | 37995 ft | 451 kts | 47° |
| 2026-04-28 16:33 | 10.76442 | -77.65856 | 37997 ft | 449 kts | 47° |
| 2026-04-28 16:33 | 10.82052 | -77.59666 | 38000 ft | 445 kts | 47° |
| 2026-04-28 16:34 | 10.86246 | -77.55035 | 38002 ft | 444 kts | 47° |
| 2026-04-28 16:34 | 10.90433 | -77.50410 | 38003 ft | 444 kts | 47° |
| 2026-04-28 16:35 | 10.94632 | -77.45768 | 38005 ft | 446 kts | 47° |
| 2026-04-28 16:35 | 10.98843 | -77.41115 | 38005 ft | 448 kts | 47° |
| 2026-04-28 16:36 | 11.03144 | -77.36515 | 38005 ft | 450 kts | 46° |
| 2026-04-28 16:36 | 11.07477 | -77.31946 | 38004 ft | 452 kts | 46° |
| 2026-04-28 16:37 | 11.11132 | -77.28077 | 38002 ft | 453 kts | 46° |
| 2026-04-28 16:38 | 11.17691 | -77.21105 | 38001 ft | 455 kts | 46° |
| 2026-04-28 16:38 | 11.22063 | -77.16451 | 38001 ft | 455 kts | 46° |
| 2026-04-28 16:39 | 11.26411 | -77.11821 | 38000 ft | 455 kts | 46° |
| 2026-04-28 16:39 | 11.30776 | -77.07170 | 38000 ft | 454 kts | 46° |
| 2026-04-28 16:40 | 11.35139 | -77.02520 | 38000 ft | 453 kts | 46° |
| 2026-04-28 16:40 | 11.39513 | -76.97902 | 37999 ft | 451 kts | 45° |
| 2026-04-28 16:41 | 11.43982 | -76.93417 | 38001 ft | 450 kts | 44° |
| 2026-04-28 16:41 | 11.48461 | -76.88960 | 38000 ft | 449 kts | 44° |
| 2026-04-28 16:42 | 11.52914 | -76.84500 | 38001 ft | 448 kts | 44° |
| 2026-04-28 16:42 | 11.57325 | -76.80062 | 38001 ft | 448 kts | 45° |
| 2026-04-28 16:43 | 11.61755 | -76.75598 | 38002 ft | 448 kts | 45° |
| 2026-04-28 16:43 | 11.66185 | -76.71132 | 38002 ft | 448 kts | 45° |
| 2026-04-28 16:44 | 11.70626 | -76.66653 | 38002 ft | 448 kts | 45° |
| 2026-04-28 16:44 | 11.75061 | -76.62178 | 38002 ft | 449 kts | 45° |
| 2026-04-28 16:45 | 11.79506 | -76.57691 | 38002 ft | 450 kts | 45° |
| 2026-04-28 16:45 | 11.83965 | -76.53188 | 38002 ft | 450 kts | 45° |
| 2026-04-28 16:46 | 11.88418 | -76.48689 | 38002 ft | 451 kts | 45° |
| 2026-04-28 16:46 | 11.92857 | -76.44201 | 38002 ft | 451 kts | 45° |
| 2026-04-28 16:47 | 11.97322 | -76.39685 | 38001 ft | 452 kts | 45° |
| 2026-04-28 16:47 | 12.01785 | -76.35169 | 38001 ft | 452 kts | 45° |
| 2026-04-28 16:48 | 12.06256 | -76.30643 | 38001 ft | 452 kts | 45° |
| 2026-04-28 16:48 | 12.10717 | -76.26123 | 38001 ft | 452 kts | 45° |
| 2026-04-28 16:49 | 12.15185 | -76.21595 | 38001 ft | 452 kts | 45° |
| 2026-04-28 16:49 | 12.19648 | -76.17070 | 38001 ft | 451 kts | 45° |
| 2026-04-28 16:50 | 12.24096 | -76.12555 | 38001 ft | 451 kts | 45° |
| 2026-04-28 16:50 | 12.28522 | -76.08065 | 38001 ft | 450 kts | 45° |
| 2026-04-28 16:51 | 12.32970 | -76.03554 | 38001 ft | 450 kts | 45° |
| 2026-04-28 16:51 | 12.37414 | -75.99044 | 38001 ft | 450 kts | 45° |
| 2026-04-28 16:52 | 12.41854 | -75.94535 | 38001 ft | 449 kts | 45° |
| 2026-04-28 16:52 | 12.46291 | -75.90026 | 38001 ft | 449 kts | 45° |
| 2026-04-28 16:53 | 12.50725 | -75.85518 | 38001 ft | 449 kts | 45° |
| 2026-04-28 16:53 | 12.55161 | -75.81005 | 38001 ft | 449 kts | 45° |
| 2026-04-28 16:54 | 12.59567 | -75.76520 | 38002 ft | 449 kts | 45° |
| 2026-04-28 16:54 | 12.63997 | -75.72009 | 38002 ft | 449 kts | 45° |
| 2026-04-28 16:55 | 12.68433 | -75.67490 | 38002 ft | 450 kts | 45° |
| 2026-04-28 16:55 | 12.72872 | -75.62964 | 38002 ft | 450 kts | 45° |
| 2026-04-28 16:56 | 12.77310 | -75.58437 | 38002 ft | 450 kts | 45° |
| 2026-04-28 16:56 | 12.81743 | -75.53914 | 38002 ft | 450 kts | 45° |
| 2026-04-28 16:57 | 12.86154 | -75.49409 | 38002 ft | 450 kts | 45° |
| 2026-04-28 16:57 | 12.90592 | -75.44874 | 38002 ft | 450 kts | 45° |
| 2026-04-28 16:58 | 12.95033 | -75.40335 | 38002 ft | 451 kts | 45° |
| 2026-04-28 16:58 | 12.99474 | -75.35793 | 38001 ft | 451 kts | 45° |
| 2026-04-28 16:59 | 13.03914 | -75.31249 | 38001 ft | 451 kts | 45° |
| 2026-04-28 16:59 | 13.08348 | -75.26707 | 38001 ft | 450 kts | 45° |
| 2026-04-28 17:00 | 13.12781 | -75.22162 | 38001 ft | 450 kts | 45° |
| 2026-04-28 17:00 | 13.17214 | -75.17617 | 38001 ft | 450 kts | 45° |
| 2026-04-28 17:01 | 13.21616 | -75.13103 | 38001 ft | 450 kts | 45° |
| 2026-04-28 17:01 | 13.26055 | -75.08552 | 38001 ft | 450 kts | 45° |
| 2026-04-28 17:02 | 13.30487 | -75.04006 | 38001 ft | 450 kts | 45° |
| 2026-04-28 17:02 | 13.34911 | -74.99462 | 38001 ft | 450 kts | 45° |
| 2026-04-28 17:03 | 13.41544 | -74.92646 | 38001 ft | 450 kts | 45° |
| 2026-04-28 17:03 | 13.45946 | -74.88119 | 38001 ft | 450 kts | 45° |
| 2026-04-28 17:04 | 13.52580 | -74.81292 | 38001 ft | 449 kts | 45° |
| 2026-04-28 17:05 | 13.59203 | -74.74470 | 38001 ft | 449 kts | 45° |
| 2026-04-28 17:06 | 13.65833 | -74.67636 | 38001 ft | 450 kts | 45° |
| 2026-04-28 17:06 | 13.72429 | -74.60831 | 38001 ft | 450 kts | 45° |
| 2026-04-28 17:07 | 13.76843 | -74.56273 | 38001 ft | 450 kts | 45° |
| 2026-04-28 17:07 | 13.81265 | -74.51706 | 38001 ft | 450 kts | 45° |
| 2026-04-28 17:08 | 13.85686 | -74.47136 | 38001 ft | 450 kts | 45° |
| 2026-04-28 17:08 | 13.90103 | -74.42568 | 38001 ft | 450 kts | 45° |
| 2026-04-28 17:09 | 13.94484 | -74.38034 | 38001 ft | 450 kts | 45° |
| 2026-04-28 17:09 | 13.98902 | -74.33460 | 38001 ft | 450 kts | 45° |
| 2026-04-28 17:10 | 14.03312 | -74.28891 | 38001 ft | 450 kts | 45° |
| 2026-04-28 17:10 | 14.07724 | -74.24316 | 38001 ft | 450 kts | 45° |
| 2026-04-28 17:11 | 14.12133 | -74.19743 | 38001 ft | 450 kts | 45° |
| 2026-04-28 17:11 | 14.16542 | -74.15167 | 38001 ft | 450 kts | 45° |
| 2026-04-28 17:12 | 14.20959 | -74.10597 | 38001 ft | 450 kts | 45° |
| 2026-04-28 17:12 | 14.25376 | -74.06032 | 38001 ft | 450 kts | 45° |
| 2026-04-28 17:13 | 14.29759 | -74.01495 | 38001 ft | 450 kts | 45° |
| 2026-04-28 17:13 | 14.34176 | -73.96927 | 38001 ft | 450 kts | 45° |
| 2026-04-28 17:14 | 14.38597 | -73.92365 | 38001 ft | 449 kts | 45° |
| 2026-04-28 17:14 | 14.43024 | -73.87793 | 38001 ft | 449 kts | 45° |
| 2026-04-28 17:15 | 14.47447 | -73.83220 | 38001 ft | 449 kts | 45° |
| 2026-04-28 17:15 | 14.51863 | -73.78650 | 38001 ft | 449 kts | 45° |
| 2026-04-28 17:16 | 14.56277 | -73.74080 | 38001 ft | 449 kts | 45° |
| 2026-04-28 17:16 | 14.60660 | -73.69539 | 38001 ft | 449 kts | 45° |
| 2026-04-28 17:17 | 14.65072 | -73.64965 | 38001 ft | 449 kts | 45° |
| 2026-04-28 17:17 | 14.69479 | -73.60394 | 38001 ft | 449 kts | 45° |
| 2026-04-28 17:18 | 14.73893 | -73.55813 | 38001 ft | 449 kts | 45° |
| 2026-04-28 17:18 | 14.78305 | -73.51230 | 38001 ft | 449 kts | 45° |
| 2026-04-28 17:19 | 14.82711 | -73.46650 | 38001 ft | 449 kts | 45° |
| 2026-04-28 17:19 | 14.87117 | -73.42070 | 38001 ft | 449 kts | 45° |
| 2026-04-28 17:20 | 14.90881 | -73.38364 | 38001 ft | 449 kts | 43° |
| 2026-04-28 17:20 | 14.96261 | -73.33241 | 38001 ft | 449 kts | 43° |
| 2026-04-28 17:21 | 15.00804 | -73.28867 | 38001 ft | 449 kts | 43° |
| 2026-04-28 17:22 | 15.07645 | -73.22237 | 38002 ft | 449 kts | 43° |
| 2026-04-28 17:22 | 15.12143 | -73.17747 | 38001 ft | 449 kts | 45° |
| 2026-04-28 17:23 | 15.18788 | -73.10904 | 38001 ft | 449 kts | 45° |
| 2026-04-28 17:23 | 15.23228 | -73.06352 | 38001 ft | 449 kts | 45° |
| 2026-04-28 17:24 | 15.27679 | -73.01799 | 38001 ft | 449 kts | 45° |
| 2026-04-28 17:24 | 15.32124 | -72.97249 | 38001 ft | 449 kts | 45° |
| 2026-04-28 17:25 | 15.38041 | -72.91185 | 38001 ft | 449 kts | 45° |
| 2026-04-28 17:26 | 15.42477 | -72.86626 | 38001 ft | 449 kts | 45° |
| 2026-04-28 17:26 | 15.46912 | -72.82066 | 38001 ft | 449 kts | 45° |
| 2026-04-28 17:27 | 15.51351 | -72.77498 | 38001 ft | 449 kts | 45° |
| 2026-04-28 17:27 | 15.55789 | -72.72928 | 38001 ft | 449 kts | 45° |
| 2026-04-28 17:28 | 15.60224 | -72.68359 | 38001 ft | 449 kts | 45° |
| 2026-04-28 17:28 | 15.66871 | -72.61506 | 38001 ft | 449 kts | 45° |
| 2026-04-28 17:29 | 15.71304 | -72.56932 | 38001 ft | 449 kts | 45° |
| 2026-04-28 17:30 | 15.77917 | -72.50102 | 38001 ft | 449 kts | 45° |
| 2026-04-28 17:30 | 15.84552 | -72.43242 | 38001 ft | 449 kts | 45° |
| 2026-04-28 17:31 | 15.91193 | -72.36369 | 38001 ft | 449 kts | 45° |
| 2026-04-28 17:32 | 15.97826 | -72.29498 | 38001 ft | 449 kts | 45° |
| 2026-04-28 17:32 | 16.02248 | -72.24920 | 38001 ft | 449 kts | 45° |
| 2026-04-28 17:33 | 16.06678 | -72.20333 | 38001 ft | 449 kts | 45° |
| 2026-04-28 17:33 | 16.10358 | -72.16521 | 38001 ft | 449 kts | 45° |
| 2026-04-28 17:34 | 16.15496 | -72.11193 | 38001 ft | 449 kts | 45° |
| 2026-04-28 17:34 | 16.19923 | -72.06598 | 38001 ft | 449 kts | 45° |
| 2026-04-28 17:35 | 16.24342 | -72.02008 | 38001 ft | 449 kts | 45° |
| 2026-04-28 17:35 | 16.28762 | -71.97414 | 38001 ft | 449 kts | 45° |
| 2026-04-28 17:36 | 16.33180 | -71.92819 | 38001 ft | 449 kts | 45° |
| 2026-04-28 17:36 | 16.37597 | -71.88222 | 38001 ft | 449 kts | 45° |
| 2026-04-28 17:37 | 16.41982 | -71.83655 | 38001 ft | 449 kts | 45° |
| 2026-04-28 17:37 | 16.46398 | -71.79052 | 38001 ft | 449 kts | 45° |
| 2026-04-28 17:38 | 16.50810 | -71.74450 | 38001 ft | 449 kts | 45° |
| 2026-04-28 17:38 | 16.55233 | -71.69834 | 37686 ft | 454 kts | 45° |
| 2026-04-28 17:39 | 16.57465 | -71.67501 | 37329 ft | 450 kts | 45° |
| 2026-04-28 17:39 | 16.59651 | -71.65189 | 36888 ft | 446 kts | 45° |
| 2026-04-28 17:39 | 16.63951 | -71.60603 | 36112 ft | 438 kts | 46° |
| 2026-04-28 17:40 | 16.66069 | -71.58340 | 35714 ft | 434 kts | 46° |
| 2026-04-28 17:40 | 16.68170 | -71.56097 | 35306 ft | 430 kts | 45° |
| 2026-04-28 17:40 | 16.70253 | -71.53875 | 34904 ft | 427 kts | 45° |
| 2026-04-28 17:40 | 16.72318 | -71.51672 | 34507 ft | 423 kts | 45° |
| 2026-04-28 17:41 | 16.74370 | -71.49482 | 34114 ft | 420 kts | 45° |
| 2026-04-28 17:41 | 16.76404 | -71.47312 | 33724 ft | 417 kts | 45° |
| 2026-04-28 17:41 | 16.78427 | -71.45153 | 33339 ft | 414 kts | 45° |
| 2026-04-28 17:41 | 16.80403 | -71.43044 | 32963 ft | 410 kts | 45° |
| 2026-04-28 17:42 | 16.82415 | -71.40894 | 32582 ft | 407 kts | 45° |
| 2026-04-28 17:42 | 16.83726 | -71.39494 | 32331 ft | 405 kts | 45° |
| 2026-04-28 17:42 | 16.86321 | -71.36720 | 31847 ft | 401 kts | 46° |
| 2026-04-28 17:42 | 16.88289 | -71.34616 | 31472 ft | 398 kts | 46° |
| 2026-04-28 17:43 | 16.90197 | -71.32576 | 31116 ft | 395 kts | 46° |
| 2026-04-28 17:43 | 16.92109 | -71.30524 | 30778 ft | 392 kts | 46° |
| 2026-04-28 17:43 | 16.93989 | -71.28482 | 30457 ft | 388 kts | 46° |
| 2026-04-28 17:43 | 16.95850 | -71.26447 | 30097 ft | 386 kts | 46° |
| 2026-04-28 17:44 | 16.97693 | -71.24428 | 29743 ft | 383 kts | 46° |
| 2026-04-28 17:44 | 16.99526 | -71.22420 | 29383 ft | 380 kts | 46° |
| 2026-04-28 17:44 | 17.01344 | -71.20430 | 29015 ft | 377 kts | 46° |
| 2026-04-28 17:44 | 17.03152 | -71.18452 | 28650 ft | 375 kts | 46° |
| 2026-04-28 17:45 | 17.04944 | -71.16491 | 28290 ft | 372 kts | 46° |
| 2026-04-28 17:45 | 17.06722 | -71.14545 | 27935 ft | 369 kts | 46° |
| 2026-04-28 17:45 | 17.08490 | -71.12611 | 27580 ft | 367 kts | 46° |
| 2026-04-28 17:45 | 17.10248 | -71.10686 | 27232 ft | 364 kts | 46° |
| 2026-04-28 17:46 | 17.11968 | -71.08803 | 26890 ft | 361 kts | 46° |
| 2026-04-28 17:46 | 17.13720 | -71.06884 | 26547 ft | 359 kts | 46° |
| 2026-04-28 17:46 | 17.15412 | -71.05030 | 26212 ft | 356 kts | 46° |
| 2026-04-28 17:46 | 17.17121 | -71.03158 | 25876 ft | 353 kts | 46° |
| 2026-04-28 17:47 | 17.18808 | -71.01307 | 25552 ft | 351 kts | 46° |
| 2026-04-28 17:47 | 17.20488 | -70.99465 | 25215 ft | 348 kts | 46° |
| 2026-04-28 17:47 | 17.22151 | -70.97642 | 24884 ft | 346 kts | 46° |
| 2026-04-28 17:47 | 17.23246 | -70.96441 | 24665 ft | 344 kts | 46° |
| 2026-04-28 17:48 | 17.25457 | -70.94035 | 24283 ft | 341 kts | 46° |
| 2026-04-28 17:48 | 17.27126 | -70.92255 | 24047 ft | 345 kts | 45° |
| 2026-04-28 17:48 | 17.28811 | -70.90467 | 23786 ft | 343 kts | 45° |
| 2026-04-28 17:48 | 17.30481 | -70.88694 | 23457 ft | 341 kts | 45° |
| 2026-04-28 17:49 | 17.32141 | -70.86931 | 23119 ft | 339 kts | 45° |
| 2026-04-28 17:49 | 17.33790 | -70.85177 | 22781 ft | 337 kts | 45° |
| 2026-04-28 17:49 | 17.35433 | -70.83427 | 22443 ft | 336 kts | 45° |
| 2026-04-28 17:49 | 17.37062 | -70.81690 | 22102 ft | 334 kts | 45° |
| 2026-04-28 17:50 | 17.38686 | -70.79958 | 21765 ft | 332 kts | 45° |
| 2026-04-28 17:50 | 17.40282 | -70.78255 | 21432 ft | 331 kts | 45° |
| 2026-04-28 17:50 | 17.41888 | -70.76540 | 21099 ft | 329 kts | 45° |
| 2026-04-28 17:50 | 17.43489 | -70.74831 | 20762 ft | 328 kts | 45° |
| 2026-04-28 17:51 | 17.45080 | -70.73131 | 20428 ft | 326 kts | 45° |
| 2026-04-28 17:51 | 17.46666 | -70.71437 | 20092 ft | 325 kts | 45° |
| 2026-04-28 17:51 | 17.48240 | -70.69754 | 19769 ft | 323 kts | 45° |
| 2026-04-28 17:51 | 17.49810 | -70.68075 | 19439 ft | 322 kts | 45° |
| 2026-04-28 17:52 | 17.51371 | -70.66406 | 19112 ft | 320 kts | 45° |
| 2026-04-28 17:52 | 17.52927 | -70.64742 | 18787 ft | 319 kts | 45° |
| 2026-04-28 17:52 | 17.56012 | -70.61440 | 18139 ft | 316 kts | 45° |
| 2026-04-28 17:53 | 17.57546 | -70.59799 | 17818 ft | 314 kts | 45° |
| 2026-04-28 17:53 | 17.59067 | -70.58170 | 17488 ft | 313 kts | 45° |
| 2026-04-28 17:53 | 17.60591 | -70.56537 | 17116 ft | 313 kts | 45° |
| 2026-04-28 17:53 | 17.62114 | -70.54905 | 16792 ft | 312 kts | 45° |
| 2026-04-28 17:54 | 17.63630 | -70.53280 | 16470 ft | 311 kts | 45° |
| 2026-04-28 17:54 | 17.65135 | -70.51667 | 16146 ft | 309 kts | 45° |
| 2026-04-28 17:54 | 17.66638 | -70.50055 | 15828 ft | 308 kts | 45° |
| 2026-04-28 17:54 | 17.68129 | -70.48457 | 15511 ft | 306 kts | 45° |
| 2026-04-28 17:55 | 17.69616 | -70.46862 | 15199 ft | 305 kts | 45° |
| 2026-04-28 17:55 | 17.71092 | -70.45278 | 14888 ft | 303 kts | 45° |
| 2026-04-28 17:55 | 17.72564 | -70.43698 | 14578 ft | 302 kts | 45° |
| 2026-04-28 17:55 | 17.74009 | -70.42146 | 14277 ft | 300 kts | 45° |
| 2026-04-28 17:56 | 17.75469 | -70.40579 | 13962 ft | 299 kts | 45° |
| 2026-04-28 17:56 | 17.76917 | -70.39023 | 13656 ft | 297 kts | 46° |
| 2026-04-28 17:56 | 17.78361 | -70.37471 | 13348 ft | 296 kts | 46° |
| 2026-04-28 17:56 | 17.79796 | -70.35929 | 13038 ft | 294 kts | 46° |
| 2026-04-28 17:57 | 17.81226 | -70.34392 | 12739 ft | 293 kts | 46° |
| 2026-04-28 17:57 | 17.82646 | -70.32864 | 12435 ft | 292 kts | 46° |
| 2026-04-28 17:57 | 17.84059 | -70.31346 | 12132 ft | 290 kts | 46° |
| 2026-04-28 17:57 | 17.85459 | -70.29824 | 11830 ft | 289 kts | 48° |
| 2026-04-28 17:58 | 17.86657 | -70.28149 | 11597 ft | 285 kts | 57° |
| 2026-04-28 17:58 | 17.87715 | -70.26397 | 11299 ft | 284 kts | 58° |
| 2026-04-28 17:58 | 17.88746 | -70.24638 | 11004 ft | 282 kts | 58° |
| 2026-04-28 17:58 | 17.89778 | -70.22885 | 10704 ft | 282 kts | 58° |
| 2026-04-28 17:59 | 17.90815 | -70.21142 | 10401 ft | 281 kts | 58° |
| 2026-04-28 17:59 | 17.91854 | -70.19413 | 10102 ft | 280 kts | 58° |
| 2026-04-28 17:59 | 17.92872 | -70.17729 | 9962 ft | 273 kts | 58° |
| 2026-04-28 17:59 | 17.93901 | -70.16034 | 9664 ft | 272 kts | 57° |
| 2026-04-28 18:00 | 17.94906 | -70.14381 | 9396 ft | 271 kts | 57° |
| 2026-04-28 18:00 | 17.95924 | -70.12711 | 9096 ft | 270 kts | 57° |
| 2026-04-28 18:00 | 17.96935 | -70.11054 | 8808 ft | 270 kts | 57° |
| 2026-04-28 18:00 | 17.97947 | -70.09394 | 8521 ft | 269 kts | 57° |
| 2026-04-28 18:01 | 17.98957 | -70.07740 | 8234 ft | 268 kts | 57° |
| 2026-04-28 18:01 | 17.99963 | -70.06090 | 7948 ft | 268 kts | 57° |
| 2026-04-28 18:01 | 18.00967 | -70.04444 | 7663 ft | 267 kts | 57° |
| 2026-04-28 18:01 | 18.01967 | -70.02806 | 7381 ft | 266 kts | 57° |
| 2026-04-28 18:02 | 18.02956 | -70.01185 | 7238 ft | 259 kts | 57° |
| 2026-04-28 18:02 | 18.03903 | -69.99631 | 7108 ft | 253 kts | 57° |
| 2026-04-28 18:02 | 18.04838 | -69.98099 | 6989 ft | 245 kts | 57° |
| 2026-04-28 18:02 | 18.05747 | -69.96608 | 6873 ft | 239 kts | 57° |
| 2026-04-28 18:03 | 18.06654 | -69.95146 | 6712 ft | 241 kts | 57° |
| 2026-04-28 18:03 | 18.07582 | -69.93660 | 6564 ft | 245 kts | 57° |
| 2026-04-28 18:03 | 18.08527 | -69.92147 | 6398 ft | 250 kts | 57° |
| 2026-04-28 18:03 | 18.09484 | -69.90615 | 6211 ft | 250 kts | 57° |
| 2026-04-28 18:04 | 18.10433 | -69.89094 | 6030 ft | 249 kts | 57° |
| 2026-04-28 18:04 | 18.11382 | -69.87573 | 5852 ft | 247 kts | 57° |
| 2026-04-28 18:04 | 18.12324 | -69.86061 | 5668 ft | 246 kts | 57° |
| 2026-04-28 18:04 | 18.13257 | -69.84564 | 5502 ft | 244 kts | 57° |
| 2026-04-28 18:05 | 18.14175 | -69.83089 | 5335 ft | 243 kts | 57° |
| 2026-04-28 18:05 | 18.14798 | -69.82089 | 5217 ft | 242 kts | 57° |
| 2026-04-28 18:05 | 18.16013 | -69.80137 | 4992 ft | 240 kts | 57° |
| 2026-04-28 18:05 | 18.16922 | -69.78676 | 4829 ft | 238 kts | 57° |
| 2026-04-28 18:06 | 18.17828 | -69.77219 | 4656 ft | 237 kts | 57° |
| 2026-04-28 18:06 | 18.18730 | -69.75768 | 4494 ft | 237 kts | 57° |
| 2026-04-28 18:06 | 18.19630 | -69.74321 | 4324 ft | 236 kts | 57° |
| 2026-04-28 18:06 | 18.20529 | -69.72876 | 4160 ft | 236 kts | 57° |
| 2026-04-28 18:07 | 18.21428 | -69.71429 | 3991 ft | 236 kts | 57° |
| 2026-04-28 18:07 | 18.22320 | -69.69994 | 3822 ft | 233 kts | 57° |
| 2026-04-28 18:07 | 18.23182 | -69.68559 | 3649 ft | 229 kts | 63° |
| 2026-04-28 18:07 | 18.23764 | -69.67020 | 3496 ft | 223 kts | 71° |
| 2026-04-28 18:08 | 18.24248 | -69.65500 | 3353 ft | 220 kts | 72° |
| 2026-04-28 18:08 | 18.24731 | -69.64008 | 3221 ft | 210 kts | 71° |
| 2026-04-28 18:08 | 18.25197 | -69.62578 | 3050 ft | 202 kts | 70° |
| 2026-04-28 18:08 | 18.25967 | -69.61411 | 2864 ft | 194 kts | 29° |
| 2026-04-28 18:09 | 18.27258 | -69.61162 | 2752 ft | 192 kts | 351° |
| 2026-04-28 18:09 | 18.28531 | -69.61504 | 2550 ft | 186 kts | 340° |
| 2026-04-28 18:09 | 18.29719 | -69.61947 | 2431 ft | 177 kts | 339° |
| 2026-04-28 18:09 | 18.30868 | -69.62401 | 2298 ft | 174 kts | 336° |
| 2026-04-28 18:10 | 18.31947 | -69.62918 | 2043 ft | 167 kts | 335° |
| 2026-04-28 18:10 | 18.33007 | -69.63358 | 1790 ft | 161 kts | 339° |
| 2026-04-28 18:10 | 18.34064 | -69.63732 | 1549 ft | 161 kts | 341° |
| 2026-04-28 18:10 | 18.35105 | -69.64074 | 1551 ft | 157 kts | 340° |
| 2026-04-28 18:11 | 18.36125 | -69.64468 | 1461 ft | 155 kts | 340° |
| 2026-04-28 18:11 | 18.37135 | -69.64823 | 1267 ft | 152 kts | 341° |
| 2026-04-28 18:11 | 18.37802 | -69.65056 | 1134 ft | 150 kts | 340° |
| 2026-04-28 18:11 | 18.39138 | -69.65507 | 825 ft | 149 kts | 341° |
| 2026-04-28 18:12 | 18.40092 | -69.65842 | 507 ft | 143 kts | 340° |
| 2026-04-28 18:12 | 18.41016 | -69.66171 | 266 ft | 137 kts | 340° |
| 2026-04-28 18:12 | 18.41904 | -69.66493 | 95 ft | 133 kts | 340° |
| 2026-04-28 18:12 | 18.42667 | -69.66777 | 74 ft | 87 kts | 340° |
| 2026-04-28 18:13 | 18.43030 | -69.66910 | 82 ft | 24 kts | 342° |
| 2026-04-28 18:13 | 18.43228 | -69.66981 | 78 ft | 37 kts | 341° |
| 2026-04-28 18:13 | 18.43400 | -69.67043 | 69 ft | 38 kts | 340° |
| 2026-04-28 18:13 | 18.43620 | -69.67129 | 76 ft | 11 kts | 316° |
| 2026-04-28 18:14 | 18.43632 | -69.67202 | 68 ft | 11 kts | 256° |
| 2026-04-28 18:14 | 18.43606 | -69.67252 | 67 ft | 13 kts | 230° |
| 2026-04-28 18:14 | 18.43540 | -69.67323 | 69 ft | 13 kts | 224° |
| 2026-04-28 18:14 | 18.43476 | -69.67391 | 61 ft | 13 kts | 225° |
| 2026-04-28 18:15 | 18.43414 | -69.67458 | 63 ft | 13 kts | 226° |
| 2026-04-28 18:15 | 18.43384 | -69.67493 | 68 ft | 0 kts | 229° |
| 2026-04-28 18:16 | 18.43381 | -69.67496 | 68 ft | 0 kts | 229° |
| 2026-04-28 18:16 | 18.43376 | -69.67507 | 68 ft | 4 kts | 244° |
| 2026-04-28 18:17 | 18.43341 | -69.67544 | 66 ft | 9 kts | 213° |
| 2026-04-28 18:17 | 18.43281 | -69.67564 | 65 ft | 9 kts | 187° |
| 2026-04-28 18:17 | 18.43231 | -69.67532 | 59 ft | 9 kts | 130° |
| 2026-04-28 18:17 | 18.43187 | -69.67488 | 60 ft | 9 kts | 152° |
| 2026-04-28 18:18 | 18.43131 | -69.67467 | 60 ft | 8 kts | 162° |
| 2026-04-28 18:18 | 18.43076 | -69.67448 | 64 ft | 8 kts | 161° |
| 2026-04-28 18:18 | 18.43027 | -69.67422 | 61 ft | 8 kts | 142° |
| 2026-04-28 18:18 | 18.43010 | -69.67407 | 65 ft | 0 kts | 141° |
| 2026-04-28 18:19 | 18.43014 | -69.67411 | 64 ft | 5 kts | 141° |
| 2026-04-28 18:19 | 18.43076 | -69.67455 | 66 ft | 1 kts | 154° |
| 2026-04-28 18:19 | 18.43068 | -69.67451 | 68 ft | 3 kts | 158° |
| 2026-04-28 18:19 | 18.43041 | -69.67454 | 58 ft | 4 kts | 195° |
| 2026-04-28 18:20 | 18.43018 | -69.67462 | 66 ft | 2 kts | 202° |
| 2026-04-28 18:20 | 18.43004 | -69.67469 | 64 ft | 2 kts | 206° |
| 2026-04-28 18:20 | 18.42991 | -69.67476 | 68 ft | 2 kts | 205° |
| 2026-04-28 18:20 | 18.42986 | -69.67478 | 68 ft | 0 kts | 205° |